Historyczne dane pomiarowe

Dodano dane terminowe – wersja testowa.

Dane z okresu 1951-2019

Wersja bazy: 1.34 [2019-03-16, lista zmian], aktualizacja planowana na 2019-04-15

Dane meteo z obszaru Polski uzyskane na podstawie danych udostępnionych przez Instytut Meteorologii i Gospodarki Wodnej – Państwowy Instytut Badawczy.

 

Wybierz Datę:    

       

TemperaturaWilgotnośćWiatrCiśnienieOpadyŚniegCzas trwania zjawisk
 Stacja t tx tn tng RH VA  wxwx mslp ppp RRR   cm mm wxwxwxwxwxwxwx
2019-06-29 20.4 28.7 8.7--- 0.3 3.3---- 0.0------------
2019-06-28 18.3 23.4 12.2--- 2.0 3.7---- 0.0------------
2019-06-27 19.6 28.0 15.6--- 4.0 6.0---- 0.0------------
2019-06-26 26.7 34.9 18.7--- 1.3 5.7---- 0.0------------
2019-06-25 24.8 31.5 16.1--- 3.7 2.7---- 0.0------------
2019-06-24 19.4 26.5 9.7--- 3.0 3.3---- 0.0------------
2019-06-23 18.2 25.5 10.1--- 0.7 2.0---- 0.0------------
2019-06-22 17.5 22.9 11.4--- 2.3 3.0---- 0.0------------
2019-06-21 18.9 23.3 15.0--- 6.0 3.3---- 1.3------------
2019-06-20 22.5 28.0 16.9--- 5.0 2.7---- 21.0------------
2019-06-19 24.0 29.7 17.1--- 4.0 4.0---- 0.0------------
2019-06-18 21.7 27.7 12.8--- 2.0 3.3---- 0.0------------
2019-06-17 18.9 25.3 10.6--- 1.3 2.3---- 0.0------------
2019-06-16 18.5 21.9 16.2--- 4.3 4.0---- 0.0------------
2019-06-15 22.5 31.2 19.3--- 6.7 5.0---- 24.1------------
2019-06-14 21.3 27.7 13.8--- 3.0 2.0---- 0.0------------
2019-06-13 21.1 28.5 17.1--- 3.0 2.7---- 0.0------------
2019-06-12 24.5 32.5 17.3--- 6.3 3.0---- 1.7------------
2019-06-11 23.7 30.0 17.3--- 6.3 2.7---- 9.8------------
2019-06-10 19.6 23.9 14.6--- 7.0 3.0---- 15.2------------
2019-06-09 17.8 23.7 9.3--- 2.7 2.7---- 0.4------------
2019-06-08 19.1 21.8 15.8--- 5.0 4.3---- 0.0------------
2019-06-07 18.2 22.8 13.9--- 4.0 2.7---- 0.0------------
2019-06-06 22.5 30.2 18.4--- 4.7 6.0---- 16.8------------
2019-06-05 24.6 31.7 15.7--- 2.0 5.0---- 0.0------------
2019-06-04 21.0 27.8 14.8--- 2.3 2.7---- 0.0------------
2019-06-03 24.3 31.7 16.7--- 1.3 5.7---- 0.0------------
2019-06-02 19.8 26.9 9.6--- 1.7 2.3---- 0.0------------
2019-06-01 19.2 25.5 12.0--- 5.7 3.7---- 0.0------------
2019-05-31 17.9 22.1 14.6--- 7.0 3.0---- 1.9------------
2019-05-30 12.3 20.4 -1.8--- 3.7 3.0---- 0.0------------
2019-05-29 10.2 14.8 3.2--- 4.3 4.0---- 0.0------------
2019-05-28 13.5 17.4 11.9--- 7.7 3.7---- 0.0------------
2019-05-27 16.7 18.9 15.1--- 7.0 4.0---- 1.7------------
2019-05-26 13.9 18.3 8.6--- 7.0 4.7---- 0.3------------
2019-05-25 13.7 20.3 9.1--- 7.3 3.0---- 0.0------------
2019-05-24 15.5 22.0 6.8--- 3.7 3.3---- 0.0------------
2019-05-23 14.1 17.6 10.8--- 4.3 4.7---- 0.0------------
2019-05-22 14.6 18.3 12.8--- 8.0 6.3---- 0.0------------
2019-05-21 17.5 24.5 12.0--- 5.3 2.3---- 8.7------------
2019-05-20 18.4 25.9 11.9--- 5.7 3.3---- 12.6------------
2019-05-19 18.5 24.4 11.3--- 4.7 2.3---- 0.2------------
2019-05-18 17.2 24.0 8.1--- 3.7 4.0---- 0.0------------
2019-05-17 14.5 18.3 11.4--- 8.0 2.3---- 0.0------------
2019-05-16 10.4 13.1 7.1--- 8.0 3.3---- 12.3------------
2019-05-15 7.5 12.4 -0.5--- 7.0 4.0---- 7.4------------
2019-05-14 7.9 12.1 1.4--- 3.3 3.7---- 0.0------------
2019-05-13 8.3 14.2 0.0--- 4.0 3.7---- 0.4------------
2019-05-12 10.0 14.2 5.5--- 6.0 5.0---- 0.0------------
2019-05-11 9.3 15.3 3.4--- 7.3 3.0---- 0.0------------
2019-05-10 10.8 17.6 3.4--- 7.0 2.3---- 2.0------------
2019-05-09 11.1 14.5 9.3--- 8.0 4.3---- 25.3------------
2019-05-08 9.7 16.6 -0.5--- 3.7 5.7---- 2.2------------
2019-05-07 7.7 12.1 2.5--- 4.0 3.7---- 0.0------------
2019-05-06 6.6 13.6 -1.5--- 4.3 3.3---- 0.1------------
2019-05-05 6.2 12.4 -2.4--- 3.3 2.3---- 0.0------------
2019-05-04 6.1 10.1 2.5--- 3.3 4.3---- 0.1------------
2019-05-03 6.9 10.8 4.1--- 6.3 3.7---- 0.3------------
2019-05-02 9.8 12.7 8.0--- 7.7 5.3---- 0.6------------
2019-05-01 11.1 16.8 5.6--- 4.7 5.7---- 0.0------------
165.7 ms

 

Źródłem pochodzenia danych jest Instytut Meteorologii i Gospodarki Wodnej – Państwowy Instytut Badawczy. Dane Instytutu Meteorologii i Gospodarki Wodnej – Państwowego Instytutu Badawczego zostały przetworzone.

Dane źródłowe można odnaleźć na stronie https://dane.imgw.pl